createdAt,value
2023-02-19T00:00:17.615Z,0.20
2023-02-19T00:03:19.312Z,0.20
2023-02-19T00:06:21.720Z,0.20
2023-02-19T00:09:23.302Z,0.20
2023-02-19T00:12:24.854Z,0.20
2023-02-19T00:15:26.574Z,0.20
2023-02-19T00:18:28.339Z,0.20
2023-02-19T00:21:30.256Z,0.55
2023-02-19T00:24:31.880Z,0.10
2023-02-19T00:27:33.475Z,0.25
2023-02-19T00:30:35.499Z,0.40
2023-02-19T00:33:38.077Z,0.20
2023-02-19T00:36:40.633Z,0.20
2023-02-19T00:39:42.245Z,0.30
2023-02-19T00:42:43.866Z,0.50
2023-02-19T00:45:45.622Z,0.25
2023-02-19T00:48:47.758Z,0.35
2023-02-19T00:51:50.194Z,0.20
2023-02-19T00:54:51.780Z,0.20
2023-02-19T00:57:53.442Z,0.20
2023-02-19T01:00:55.614Z,0.20
2023-02-19T01:03:57.317Z,0.40
2023-02-19T01:06:58.888Z,0.60
2023-02-19T01:10:00.508Z,0.32
2023-02-19T01:13:02.092Z,0.70
2023-02-19T01:16:05.546Z,0.57
2023-02-19T01:19:07.436Z,0.32
2023-02-19T01:22:09.072Z,0.17
2023-02-19T01:25:10.692Z,0.40
2023-02-19T01:28:12.373Z,0.45
2023-02-19T01:31:15.707Z,0.50
2023-02-19T01:34:17.299Z,0.75
2023-02-19T01:37:19.455Z,0.15
2023-02-19T01:40:21.537Z,0.43
2023-02-19T01:43:23.302Z,0.88
2023-02-19T01:46:28.921Z,0.47
2023-02-19T01:49:32.966Z,0.40
2023-02-19T01:52:35.652Z,0.70
2023-02-19T01:55:37.539Z,0.03
2023-02-19T01:58:40.598Z,0.80
2023-02-19T02:01:42.274Z,0.75
2023-02-19T02:04:43.936Z,0.90
2023-02-19T02:08:04.253Z,0.60
2023-02-19T02:11:06.023Z,0.75
2023-02-19T02:14:07.832Z,0.73
2023-02-19T02:17:15.925Z,0.40
2023-02-19T02:20:17.901Z,0.80
2023-02-19T02:23:26.519Z,0.88
2023-02-19T02:26:43.788Z,0.75
2023-02-19T02:29:54.548Z,0.52
2023-02-19T02:33:14.301Z,0.70
2023-02-19T02:36:25.355Z,0.93
2023-02-19T02:39:28.236Z,0.82
2023-02-19T02:42:30.427Z,0.88
2023-02-19T02:45:39.855Z,0.82
2023-02-19T02:48:58.679Z,0.80
2023-02-19T02:52:21.208Z,0.80
2023-02-19T02:55:23.774Z,0.70
2023-02-19T02:58:25.777Z,0.70
2023-02-19T03:01:51.585Z,0.80
2023-02-19T03:05:15.078Z,0.80
2023-02-19T03:08:21.972Z,0.90
2023-02-19T03:11:42.650Z,2.28
2023-02-19T03:15:06.821Z,2.05
2023-02-19T03:18:28.300Z,1.17
2023-02-19T03:21:32.776Z,0.70
2023-02-19T03:24:53.931Z,0.70
2023-02-19T03:27:57.523Z,0.40
2023-02-19T03:30:59.401Z,0.43
2023-02-19T03:34:03.585Z,0.60
2023-02-19T03:37:25.275Z,0.60
2023-02-19T03:40:29.367Z,0.77
2023-02-19T03:43:30.972Z,0.65
2023-02-19T03:46:45.947Z,0.80
2023-02-19T03:50:00.324Z,0.30
2023-02-19T03:53:23.302Z,0.40
2023-02-19T03:56:31.483Z,0.22
2023-02-19T03:59:54.056Z,0.22
2023-02-19T04:03:02.388Z,0.10
2023-02-19T04:06:09.631Z,0.13
2023-02-19T04:09:11.694Z,0.10
2023-02-19T04:12:14.874Z,0.10
2023-02-19T04:15:21.122Z,0.10
2023-02-19T04:18:25.141Z,0.13
2023-02-19T04:21:29.049Z,0.10
2023-02-19T04:24:36.863Z,0.10
2023-02-19T04:27:38.882Z,0.47
2023-02-19T04:30:40.625Z,0.10
2023-02-19T04:33:42.450Z,0.30
2023-02-19T04:36:44.933Z,0.25
2023-02-19T04:39:46.588Z,0.55
2023-02-19T04:42:48.170Z,0.20
2023-02-19T04:45:49.904Z,0.20
2023-02-19T04:48:51.727Z,0.20
2023-02-19T04:51:53.317Z,0.45
2023-02-19T04:54:54.944Z,0.30
2023-02-19T04:57:56.515Z,0.30
2023-02-19T05:00:58.101Z,0.17
2023-02-19T05:03:59.669Z,0.30
2023-02-19T05:07:01.268Z,0.20
2023-02-19T05:10:02.987Z,0.30
2023-02-19T05:13:04.573Z,0.20
2023-02-19T05:16:07.424Z,0.10
2023-02-19T05:19:12.588Z,0.20
2023-02-19T05:22:14.345Z,0.15
2023-02-19T05:25:16.016Z,0.10
2023-02-19T05:28:17.631Z,0.10
2023-02-19T05:31:19.944Z,0.20
2023-02-19T05:34:21.765Z,0.00
2023-02-19T05:37:23.395Z,0.10
2023-02-19T05:40:24.949Z,0.13
2023-02-19T05:43:26.507Z,0.00
2023-02-19T05:46:29.787Z,0.22
2023-02-19T05:49:31.722Z,0.05
2023-02-19T05:52:33.267Z,0.00
2023-02-19T05:55:35.736Z,0.00
2023-02-19T05:58:37.323Z,0.00
2023-02-19T06:01:39.065Z,0.00
2023-02-19T06:04:40.802Z,0.00
2023-02-19T06:07:43.012Z,0.00
2023-02-19T06:10:44.567Z,0.00
2023-02-19T06:13:46.612Z,0.03
2023-02-19T06:16:48.588Z,0.15
2023-02-19T06:19:50.190Z,0.10
2023-02-19T06:22:52.039Z,0.40
2023-02-19T06:25:53.666Z,0.20
2023-02-19T06:28:55.300Z,0.40
2023-02-19T06:31:56.956Z,0.30
2023-02-19T06:34:58.671Z,0.40
2023-02-19T06:38:00.288Z,0.38
2023-02-19T06:41:02.858Z,0.28
2023-02-19T06:44:04.527Z,0.22
2023-02-19T06:47:06.086Z,0.28
2023-02-19T06:50:07.772Z,0.20
2023-02-19T06:53:11.406Z,0.25
2023-02-19T06:56:26.937Z,0.20
2023-02-19T06:59:28.652Z,0.10
2023-02-19T07:02:30.269Z,0.30
2023-02-19T07:05:31.826Z,0.30
2023-02-19T07:08:33.428Z,0.10
2023-02-19T07:11:36.064Z,0.28
2023-02-19T07:14:37.658Z,0.32
2023-02-19T07:17:39.308Z,0.50
2023-02-19T07:20:40.930Z,0.60
2023-02-19T07:23:42.868Z,0.30
2023-02-19T07:26:44.439Z,0.45
2023-02-19T07:29:46.124Z,0.73
2023-02-19T07:32:47.736Z,1.23
2023-02-19T07:35:50.206Z,0.10
2023-02-19T07:38:55.704Z,0.20
2023-02-19T07:41:57.672Z,0.10
2023-02-19T07:45:02.327Z,0.03
2023-02-19T07:48:04.001Z,0.10
2023-02-19T07:51:06.468Z,0.00
2023-02-19T07:54:08.213Z,0.10
2023-02-19T07:57:09.809Z,0.10
2023-02-19T08:00:11.640Z,0.00
2023-02-19T08:03:16.646Z,0.10
2023-02-19T08:06:18.220Z,0.00
2023-02-19T08:09:19.796Z,0.00
2023-02-19T08:12:40.170Z,0.13
2023-02-19T08:15:41.776Z,0.20
2023-02-19T08:18:43.879Z,0.65
2023-02-19T08:21:45.539Z,0.10
2023-02-19T08:24:47.539Z,0.20
2023-02-19T08:27:49.170Z,0.00
2023-02-19T08:30:50.903Z,0.20
2023-02-19T08:33:52.650Z,0.15
2023-02-19T08:36:54.286Z,1.00
2023-02-19T08:39:55.892Z,0.10
2023-02-19T08:43:02.144Z,0.50
2023-02-19T08:46:04.390Z,2.30
2023-02-19T08:49:05.965Z,0.15
2023-02-19T08:52:07.566Z,1.10
2023-02-19T08:55:09.166Z,0.47
2023-02-19T08:58:11.033Z,0.20
2023-02-19T09:01:14.630Z,0.08
2023-02-19T09:04:16.465Z,0.00
2023-02-19T09:07:18.370Z,0.10
2023-02-19T09:10:20.086Z,0.00
2023-02-19T09:13:21.682Z,0.05
2023-02-19T09:16:23.377Z,0.10
2023-02-19T09:19:25.037Z,0.45
2023-02-19T09:22:26.661Z,0.00
2023-02-19T09:25:28.321Z,0.70
2023-02-19T09:28:29.920Z,0.10
2023-02-19T09:31:31.606Z,0.38
2023-02-19T09:34:33.339Z,1.00
2023-02-19T09:37:35.042Z,0.13
2023-02-19T09:40:37.454Z,0.50
2023-02-19T09:43:39.008Z,0.40
2023-02-19T09:46:48.813Z,0.13
2023-02-19T09:49:56.409Z,0.10
2023-02-19T09:53:03.280Z,0.25
2023-02-19T09:56:05.150Z,0.30
2023-02-19T09:59:07.813Z,0.20
2023-02-19T10:02:15.797Z,0.00
2023-02-19T10:05:17.684Z,0.30
2023-02-19T10:08:20.896Z,0.22
2023-02-19T10:11:23.494Z,0.15
2023-02-19T10:14:55.513Z,0.10
2023-02-19T10:17:57.241Z,0.30
2023-02-19T10:20:58.897Z,0.00
2023-02-19T10:24:02.002Z,0.17
2023-02-19T10:27:06.000Z,0.00
2023-02-19T10:30:12.779Z,0.47
2023-02-19T10:33:15.552Z,0.22
2023-02-19T10:36:40.526Z,0.55
2023-02-19T10:39:44.328Z,0.10
2023-02-19T10:42:50.290Z,0.40
2023-02-19T10:45:53.031Z,1.00
2023-02-19T10:48:55.932Z,0.30
2023-02-19T10:51:58.715Z,0.63
2023-02-19T10:55:21.453Z,0.47
2023-02-19T10:58:25.907Z,0.28
2023-02-19T11:01:27.931Z,0.40
2023-02-19T11:04:34.089Z,0.32
2023-02-19T11:07:36.483Z,0.40
2023-02-19T11:10:42.354Z,0.32
2023-02-19T11:13:43.971Z,0.10
2023-02-19T11:16:47.072Z,0.10
2023-02-19T11:19:51.660Z,0.17
2023-02-19T11:22:57.311Z,0.88
2023-02-19T11:26:03.619Z,0.20
2023-02-19T11:29:16.413Z,0.20
2023-02-19T11:32:21.182Z,0.93
2023-02-19T11:35:25.225Z,0.30
2023-02-19T11:38:26.866Z,0.40
2023-02-19T11:41:28.415Z,0.60
2023-02-19T11:44:39.830Z,0.60
2023-02-19T11:48:00.160Z,0.30
2023-02-19T11:51:08.981Z,0.52
2023-02-19T11:54:10.709Z,0.68
2023-02-19T11:57:12.324Z,0.35
2023-02-19T12:00:20.204Z,0.30
2023-02-19T12:03:27.882Z,0.22
2023-02-19T12:06:29.535Z,0.10
2023-02-19T12:09:37.062Z,0.10
2023-02-19T12:12:53.779Z,0.30
2023-02-19T12:15:58.115Z,0.30
2023-02-19T12:19:00.144Z,0.40
2023-02-19T12:22:10.751Z,0.10
2023-02-19T12:25:32.822Z,0.10
2023-02-19T12:28:54.718Z,0.30
2023-02-19T12:31:56.328Z,0.10
2023-02-19T12:35:13.327Z,0.22
2023-02-19T12:41:17.760Z,0.10
2023-02-19T12:44:48.494Z,0.10
2023-02-19T12:47:59.307Z,0.30
2023-02-19T12:51:07.021Z,0.20
2023-02-19T12:54:27.274Z,0.20
2023-02-19T12:57:34.085Z,0.20
2023-02-19T13:00:37.402Z,0.03
2023-02-19T13:03:41.900Z,0.00
2023-02-19T13:06:46.702Z,0.20
2023-02-19T13:09:48.281Z,0.10
2023-02-19T13:12:51.561Z,0.10
2023-02-19T13:15:57.051Z,0.20
2023-02-19T13:19:02.533Z,0.10
2023-02-19T13:22:30.101Z,0.10
2023-02-19T13:25:44.953Z,0.20
2023-02-19T13:28:49.553Z,0.20
2023-02-19T13:31:57.212Z,0.00
2023-02-19T13:34:58.808Z,0.08
2023-02-19T13:38:01.704Z,0.10
2023-02-19T13:41:04.255Z,0.52
2023-02-19T13:44:08.201Z,0.10
2023-02-19T13:47:29.802Z,0.30
2023-02-19T13:50:34.597Z,0.20
2023-02-19T13:53:42.716Z,0.08
2023-02-19T13:56:44.345Z,0.10
2023-02-19T13:59:46.401Z,0.20
2023-02-19T14:02:48.001Z,0.00
2023-02-19T14:06:04.363Z,0.20
2023-02-19T14:09:25.875Z,0.00
2023-02-19T14:12:34.471Z,0.08
2023-02-19T14:15:44.183Z,0.20
2023-02-19T14:18:46.591Z,0.10
2023-02-19T14:21:48.250Z,0.17
2023-02-19T14:24:50.070Z,0.17
2023-02-19T14:27:52.435Z,0.20
2023-02-19T14:30:59.044Z,0.20
2023-02-19T14:34:14.132Z,0.20
2023-02-19T14:37:18.311Z,0.13
2023-02-19T14:40:22.097Z,0.13
2023-02-19T14:43:25.182Z,0.00
2023-02-19T14:46:37.232Z,0.13
2023-02-19T14:49:57.546Z,0.20
2023-02-19T14:53:00.919Z,0.10
2023-02-19T14:56:03.710Z,0.20
2023-02-19T14:59:24.922Z,0.10
2023-02-19T15:02:27.791Z,0.00
2023-02-19T15:05:30.817Z,0.20
2023-02-19T15:08:34.596Z,0.10
2023-02-19T15:11:37.368Z,0.10
2023-02-19T15:14:39.706Z,0.20
2023-02-19T15:17:41.810Z,0.20
2023-02-19T15:20:43.503Z,0.08
2023-02-19T15:23:45.176Z,0.20
2023-02-19T15:26:51.272Z,0.10
2023-02-19T15:29:53.852Z,0.10
2023-02-19T15:32:56.485Z,0.20
2023-02-19T15:35:59.999Z,0.10
2023-02-19T15:39:02.508Z,0.10
2023-02-19T15:42:05.553Z,0.60
2023-02-19T15:45:16.131Z,0.25
2023-02-19T15:48:23.685Z,0.13
2023-02-19T15:51:31.928Z,0.10
2023-02-19T15:54:46.762Z,0.00
2023-02-19T15:57:54.552Z,0.30
2023-02-19T16:00:58.006Z,0.13
2023-02-19T16:03:59.889Z,0.05
2023-02-19T16:07:02.640Z,0.17
2023-02-19T16:10:05.452Z,0.20
2023-02-19T16:13:08.494Z,0.10
2023-02-19T16:16:16.482Z,0.10
2023-02-19T16:19:22.432Z,0.15
2023-02-19T16:22:25.570Z,0.32
2023-02-19T16:25:33.514Z,0.35
2023-02-19T16:28:39.419Z,0.10
2023-02-19T16:31:47.528Z,0.00
2023-02-19T16:34:50.692Z,0.30
2023-02-19T16:37:59.515Z,0.30
2023-02-19T16:41:11.796Z,0.13
2023-02-19T16:44:35.767Z,0.20
2023-02-19T16:47:38.352Z,0.30
2023-02-19T16:50:43.371Z,0.17
2023-02-19T16:53:45.050Z,0.20
2023-02-19T16:56:46.649Z,0.00
2023-02-19T16:59:48.362Z,0.08
2023-02-19T17:02:51.113Z,0.15
2023-02-19T17:05:53.060Z,0.10
2023-02-19T17:08:54.611Z,0.00
2023-02-19T17:11:56.252Z,0.17
2023-02-19T17:14:57.969Z,0.10
2023-02-19T17:17:59.657Z,0.00
2023-02-19T17:21:01.284Z,0.13
2023-02-19T17:24:03.786Z,0.00
2023-02-19T17:27:05.821Z,0.00
2023-02-19T17:30:16.867Z,0.10
2023-02-19T17:33:20.426Z,0.10
2023-02-19T17:36:32.835Z,0.00
2023-02-19T17:39:34.487Z,0.20
2023-02-19T17:42:36.285Z,0.00
2023-02-19T17:45:38.374Z,0.10
2023-02-19T17:48:40.048Z,1.45
2023-02-19T17:51:41.662Z,0.38
2023-02-19T17:54:43.939Z,0.20
2023-02-19T17:57:46.095Z,0.40
2023-02-19T18:00:47.912Z,0.47
2023-02-19T18:03:49.747Z,0.40
2023-02-19T18:06:53.926Z,0.30
2023-02-19T18:09:55.587Z,0.20
2023-02-19T18:12:57.271Z,0.20
2023-02-19T18:15:58.914Z,0.00
2023-02-19T18:19:02.229Z,0.22
2023-02-19T18:22:06.290Z,0.00
2023-02-19T18:25:08.487Z,0.38
2023-02-19T18:28:10.132Z,0.10
2023-02-19T18:31:12.101Z,0.40
2023-02-19T18:34:18.326Z,0.00
2023-02-19T18:37:19.987Z,0.10
2023-02-19T18:40:22.664Z,0.22
2023-02-19T18:43:24.566Z,0.38
2023-02-19T18:46:26.341Z,0.50
2023-02-19T18:49:29.650Z,0.45
2023-02-19T18:52:31.352Z,0.17
2023-02-19T18:55:33.046Z,0.32
2023-02-19T18:58:34.669Z,0.00
2023-02-19T19:01:36.662Z,0.10
2023-02-19T19:04:38.703Z,0.28
2023-02-19T19:07:40.574Z,0.10
2023-02-19T19:10:42.166Z,0.35
2023-02-19T19:13:45.594Z,0.20
2023-02-19T19:16:47.186Z,0.10
2023-02-19T19:19:48.874Z,0.20
2023-02-19T19:22:51.416Z,0.30
2023-02-19T19:25:54.704Z,0.20
2023-02-19T19:28:56.366Z,0.20
2023-02-19T19:31:59.258Z,0.10
2023-02-19T19:35:00.971Z,0.43
2023-02-19T19:38:02.861Z,0.22
2023-02-19T19:41:04.732Z,0.32
2023-02-19T19:44:07.946Z,0.03
2023-02-19T19:47:09.720Z,0.10
2023-02-19T19:50:13.225Z,0.00
2023-02-19T19:53:14.834Z,0.10
2023-02-19T19:56:17.182Z,0.00
2023-02-19T19:59:18.977Z,0.00
2023-02-19T20:02:20.779Z,0.00
2023-02-19T20:05:22.477Z,0.03
2023-02-19T20:08:24.151Z,0.00
2023-02-19T20:11:25.815Z,0.00
2023-02-19T20:14:27.536Z,0.20
2023-02-19T20:17:29.181Z,0.00
2023-02-19T20:20:30.844Z,0.00
2023-02-19T20:23:33.302Z,0.00
2023-02-19T20:26:34.892Z,0.00
2023-02-19T20:29:36.539Z,0.00
2023-02-19T20:32:38.296Z,0.00
2023-02-19T20:35:40.677Z,0.00
2023-02-19T20:38:43.565Z,0.10
2023-02-19T20:41:49.082Z,0.00
2023-02-19T20:44:50.702Z,0.00
2023-02-19T20:47:52.507Z,0.10
2023-02-19T20:50:59.441Z,0.00
2023-02-19T20:54:01.160Z,0.00
2023-02-19T20:57:04.684Z,0.10
2023-02-19T21:00:06.757Z,0.20
2023-02-19T21:03:09.369Z,0.00
2023-02-19T21:06:11.430Z,0.10
2023-02-19T21:09:13.308Z,0.10
2023-02-19T21:12:14.933Z,0.03
2023-02-19T21:15:16.690Z,0.00
2023-02-19T21:18:20.045Z,0.10
2023-02-19T21:21:25.292Z,0.10
2023-02-19T21:24:26.989Z,0.10
2023-02-19T21:27:28.552Z,0.00
2023-02-19T21:30:30.210Z,0.05
2023-02-19T21:33:31.835Z,0.00
2023-02-19T21:36:33.622Z,0.00
2023-02-19T21:39:35.307Z,0.00
2023-02-19T21:42:39.695Z,0.00
2023-02-19T21:45:42.707Z,0.00
2023-02-19T21:48:44.398Z,0.00
2023-02-19T21:51:48.021Z,0.17
2023-02-19T21:54:49.890Z,0.00
2023-02-19T21:57:52.525Z,0.30
2023-02-19T22:00:54.260Z,1.33
2023-02-19T22:03:55.968Z,0.82
2023-02-19T22:06:57.583Z,1.48
2023-02-19T22:09:59.140Z,1.63
2023-02-19T22:13:00.734Z,1.25
2023-02-19T22:16:02.792Z,0.95
2023-02-19T22:19:04.711Z,1.60
2023-02-19T22:22:06.401Z,0.70
2023-02-19T22:25:08.086Z,1.98
2023-02-19T22:28:09.726Z,0.30
2023-02-19T22:31:11.765Z,1.80
2023-02-19T22:34:13.603Z,1.45
2023-02-19T22:37:16.025Z,0.98
2023-02-19T22:40:17.623Z,1.35
2023-02-19T22:43:19.240Z,1.13
2023-02-19T22:46:22.138Z,1.25
2023-02-19T22:49:23.943Z,1.55
2023-02-19T22:52:28.029Z,1.10
2023-02-19T22:55:29.780Z,1.50
2023-02-19T22:58:31.360Z,0.30
2023-02-19T23:01:32.885Z,1.65
2023-02-19T23:04:34.530Z,0.85
2023-02-19T23:07:36.103Z,1.63
2023-02-19T23:10:37.648Z,0.90
2023-02-19T23:13:42.543Z,0.98
2023-02-19T23:16:44.461Z,0.68
2023-02-19T23:19:46.202Z,0.60
2023-02-19T23:22:48.108Z,1.25
2023-02-19T23:25:49.752Z,1.42
2023-02-19T23:28:51.406Z,1.17
2023-02-19T23:31:54.123Z,0.47
2023-02-19T23:34:55.791Z,0.98
2023-02-19T23:37:57.438Z,0.77
2023-02-19T23:40:59.042Z,1.45
2023-02-19T23:44:00.782Z,0.88
2023-02-19T23:47:02.345Z,0.98
2023-02-19T23:50:04.069Z,0.80
2023-02-19T23:53:05.906Z,1.38
2023-02-19T23:56:07.570Z,0.70
2023-02-19T23:59:09.229Z,1.65
